createdAt,value
2019-03-29T00:00:51.774Z,30.80
2019-03-29T00:03:27.209Z,30.80
2019-03-29T00:06:02.280Z,30.90
2019-03-29T00:08:37.859Z,31.00
2019-03-29T00:11:13.305Z,31.10
2019-03-29T00:13:49.912Z,31.20
2019-03-29T00:16:25.921Z,31.50
2019-03-29T00:19:01.993Z,31.60
2019-03-29T00:21:37.239Z,31.80
2019-03-29T00:24:12.163Z,32.00
2019-03-29T00:26:47.046Z,32.20
2019-03-29T00:29:21.655Z,32.40
2019-03-29T00:31:56.722Z,32.70
2019-03-29T00:34:31.553Z,33.10
2019-03-29T00:37:06.917Z,33.40
2019-03-29T00:39:41.832Z,33.80
2019-03-29T00:42:17.344Z,34.20
2019-03-29T00:44:52.914Z,34.40
2019-03-29T00:47:28.099Z,34.70
2019-03-29T00:50:02.955Z,34.90
2019-03-29T00:52:38.246Z,35.00
2019-03-29T00:55:13.436Z,35.10
2019-03-29T00:57:48.773Z,35.20
2019-03-29T01:00:23.972Z,35.30
2019-03-29T01:02:59.241Z,35.20
2019-03-29T01:05:34.951Z,35.20
2019-03-29T01:08:10.788Z,35.20
2019-03-29T01:10:46.035Z,35.10
2019-03-29T01:13:22.165Z,35.10
2019-03-29T01:15:57.441Z,35.10
2019-03-29T01:18:32.696Z,35.10
2019-03-29T01:21:07.608Z,35.10
2019-03-29T01:23:42.889Z,35.10
2019-03-29T01:26:18.146Z,35.10
2019-03-29T01:28:52.408Z,35.10
2019-03-29T01:31:28.151Z,35.10
2019-03-29T01:34:03.559Z,35.00
2019-03-29T01:36:38.635Z,35.00
2019-03-29T01:39:13.965Z,35.00
2019-03-29T01:41:49.625Z,35.00
2019-03-29T01:44:24.701Z,35.00
2019-03-29T01:46:59.711Z,34.90
2019-03-29T01:49:34.593Z,35.00
2019-03-29T01:52:09.856Z,35.00
2019-03-29T01:54:44.968Z,35.10
2019-03-29T01:57:20.088Z,35.10
2019-03-29T01:59:55.535Z,35.10
2019-03-29T02:02:30.480Z,35.30
2019-03-29T02:05:06.080Z,35.30
2019-03-29T02:07:42.798Z,35.30
2019-03-29T02:10:18.048Z,35.30
2019-03-29T02:12:53.403Z,35.50
2019-03-29T02:15:28.258Z,35.50
2019-03-29T02:18:04.017Z,35.60
2019-03-29T02:20:39.617Z,35.60
2019-03-29T02:23:14.544Z,35.60
2019-03-29T02:25:50.070Z,35.60
2019-03-29T02:28:25.749Z,35.70
2019-03-29T02:31:00.760Z,35.70
2019-03-29T02:33:36.105Z,35.70
2019-03-29T02:36:11.426Z,35.80
2019-03-29T02:38:55.211Z,35.90
2019-03-29T02:41:22.909Z,35.90
2019-03-29T02:43:57.907Z,35.90
2019-03-29T02:46:33.575Z,36.00
2019-03-29T02:49:08.799Z,36.00
2019-03-29T02:51:43.870Z,36.10
2019-03-29T02:54:18.960Z,36.20
2019-03-29T02:56:54.172Z,36.20
2019-03-29T02:59:29.064Z,36.20
2019-03-29T03:02:04.441Z,36.30
2019-03-29T03:04:39.858Z,36.40
2019-03-29T03:07:14.515Z,36.50
2019-03-29T03:09:49.508Z,36.50
2019-03-29T03:12:24.771Z,36.60
2019-03-29T03:14:59.644Z,36.70
2019-03-29T03:17:34.602Z,36.70
2019-03-29T03:20:14.602Z,36.80
2019-03-29T03:22:46.655Z,36.80
2019-03-29T03:25:21.311Z,36.90
2019-03-29T03:27:56.528Z,36.90
2019-03-29T03:30:31.934Z,36.90
2019-03-29T03:33:07.411Z,37.00
2019-03-29T03:35:42.615Z,37.10
2019-03-29T03:38:17.847Z,37.10
2019-03-29T03:40:53.330Z,37.10
2019-03-29T03:43:28.399Z,37.10
2019-03-29T03:46:03.443Z,37.20
2019-03-29T03:48:38.847Z,37.20
2019-03-29T03:51:13.985Z,37.20
2019-03-29T03:53:49.489Z,37.20
2019-03-29T03:56:24.276Z,37.20
2019-03-29T03:58:59.531Z,37.20
2019-03-29T04:01:34.865Z,37.20
2019-03-29T04:04:09.732Z,37.20
2019-03-29T04:06:44.763Z,37.20
2019-03-29T04:09:20.356Z,37.20
2019-03-29T04:11:55.047Z,37.20
2019-03-29T04:14:30.184Z,37.20
2019-03-29T04:17:05.958Z,37.10
2019-03-29T04:19:40.899Z,37.10
2019-03-29T04:22:15.870Z,37.10
2019-03-29T04:24:52.099Z,37.20
2019-03-29T04:27:27.212Z,37.20
2019-03-29T04:30:02.304Z,37.10
2019-03-29T04:32:37.551Z,37.10
2019-03-29T04:35:12.345Z,37.10
2019-03-29T04:37:47.365Z,37.10
2019-03-29T04:40:22.627Z,37.20
2019-03-29T04:42:57.658Z,37.20
2019-03-29T04:45:32.920Z,37.20
2019-03-29T04:48:08.407Z,37.20
2019-03-29T04:50:43.582Z,37.30
2019-03-29T04:53:18.388Z,37.30
2019-03-29T04:55:53.917Z,37.40
2019-03-29T04:58:28.804Z,37.40
2019-03-29T05:01:03.950Z,37.50
2019-03-29T05:03:40.019Z,37.50
2019-03-29T05:06:15.297Z,37.60
2019-03-29T05:08:50.402Z,37.60
2019-03-29T05:11:25.842Z,37.60
2019-03-29T05:14:01.101Z,37.70
2019-03-29T05:16:36.323Z,37.70
2019-03-29T05:19:11.437Z,37.70
2019-03-29T05:21:46.464Z,37.70
2019-03-29T05:24:21.277Z,37.70
2019-03-29T05:26:56.623Z,37.80
2019-03-29T05:29:31.168Z,37.80
2019-03-29T05:32:06.171Z,37.80
2019-03-29T05:34:41.603Z,37.90
2019-03-29T05:37:16.676Z,37.90
2019-03-29T05:39:52.048Z,38.00
2019-03-29T05:42:27.960Z,38.00
2019-03-29T05:45:02.725Z,38.00
2019-03-29T05:47:37.426Z,38.10
2019-03-29T05:50:12.514Z,38.10
2019-03-29T05:52:47.463Z,38.10
2019-03-29T05:55:32.118Z,38.10
2019-03-29T05:57:59.611Z,38.10
2019-03-29T06:00:35.268Z,38.10
2019-03-29T06:03:10.796Z,38.00
2019-03-29T06:05:45.794Z,38.00
2019-03-29T06:08:21.303Z,38.00
2019-03-29T06:10:56.795Z,38.00
2019-03-29T06:13:31.812Z,37.90
2019-03-29T06:16:07.298Z,37.90
2019-03-29T06:18:43.546Z,37.90
2019-03-29T06:21:18.738Z,37.90
2019-03-29T06:23:54.260Z,37.90
2019-03-29T06:26:29.397Z,37.90
2019-03-29T06:29:04.392Z,37.90
2019-03-29T06:31:46.407Z,37.90
2019-03-29T07:18:54.887Z,37.70
2019-03-29T07:21:43.315Z,37.70
2019-03-29T07:46:13.472Z,37.90
2019-03-29T07:48:48.629Z,37.90
2019-03-29T07:51:24.040Z,37.90
2019-03-29T07:53:59.239Z,37.90
2019-03-29T07:56:34.094Z,37.90
2019-03-29T07:59:09.286Z,38.00
2019-03-29T08:01:44.218Z,38.00
2019-03-29T08:04:21.648Z,38.00
2019-03-29T08:06:55.926Z,38.00
2019-03-29T08:09:30.930Z,38.00
2019-03-29T08:12:06.257Z,38.00
2019-03-29T08:14:42.039Z,38.10
2019-03-29T08:17:16.979Z,38.10
2019-03-29T08:20:05.722Z,38.10
2019-03-29T08:22:28.511Z,38.10
2019-03-29T08:25:03.730Z,38.10
2019-03-29T08:27:38.773Z,38.10
2019-03-29T08:30:13.767Z,38.10
2019-03-29T08:32:49.055Z,38.10
2019-03-29T08:35:24.612Z,38.10
2019-03-29T08:37:59.947Z,38.20
2019-03-29T08:40:35.209Z,38.20
2019-03-29T08:43:09.866Z,38.10
2019-03-29T08:45:44.858Z,38.10
2019-03-29T08:48:19.787Z,38.00
2019-03-29T08:50:54.894Z,37.90
2019-03-29T08:53:29.459Z,37.80
2019-03-29T08:56:04.752Z,37.80
2019-03-29T08:58:40.425Z,37.70
2019-03-29T09:01:19.021Z,37.60
2019-03-29T09:04:03.219Z,37.50
2019-03-29T09:06:30.170Z,37.40
2019-03-29T09:09:05.770Z,37.40
2019-03-29T09:11:40.910Z,37.30
2019-03-29T09:14:16.059Z,37.20
2019-03-29T09:16:51.193Z,37.20
2019-03-29T09:19:26.504Z,37.10
2019-03-29T09:22:01.783Z,37.10
2019-03-29T09:24:37.121Z,37.10
2019-03-29T09:27:12.362Z,37.00
2019-03-29T09:29:47.021Z,36.90
2019-03-29T09:32:22.088Z,36.90
2019-03-29T09:34:57.186Z,36.90
2019-03-29T09:37:32.296Z,36.80
2019-03-29T09:40:07.253Z,36.80
2019-03-29T09:42:42.262Z,36.80
2019-03-29T09:45:17.517Z,36.80
2019-03-29T09:47:55.667Z,36.80
2019-03-29T09:50:29.315Z,36.70
2019-03-29T09:53:03.964Z,36.70
2019-03-29T09:55:39.013Z,36.70
2019-03-29T09:58:16.598Z,36.70
2019-03-29T10:00:50.646Z,36.70
2019-03-29T10:03:26.065Z,36.60
2019-03-29T10:06:01.726Z,36.60
2019-03-29T10:08:37.307Z,36.60
2019-03-29T10:11:12.109Z,36.50
2019-03-29T10:13:46.973Z,36.50
2019-03-29T10:16:21.971Z,36.50
2019-03-29T10:18:57.160Z,36.40
2019-03-29T10:21:34.084Z,36.40
2019-03-29T10:24:08.487Z,36.40
2019-03-29T10:26:43.336Z,36.30
2019-03-29T10:29:18.045Z,36.20
2019-03-29T10:31:53.313Z,36.20
2019-03-29T10:34:28.491Z,36.10
2019-03-29T10:37:03.948Z,36.00
2019-03-29T10:39:39.761Z,36.00
2019-03-29T10:42:15.001Z,35.90
2019-03-29T10:44:50.088Z,35.80
2019-03-29T10:47:40.916Z,35.80
2019-03-29T10:50:01.617Z,35.70
2019-03-29T10:52:36.832Z,35.70
2019-03-29T10:55:12.086Z,35.60
2019-03-29T10:57:47.245Z,35.50
2019-03-29T11:00:27.847Z,35.40
2019-03-29T11:03:02.636Z,35.40
2019-03-29T11:05:37.774Z,35.30
2019-03-29T11:08:12.967Z,35.20
2019-03-29T11:10:47.820Z,35.20
2019-03-29T11:13:23.547Z,35.10
2019-03-29T11:15:58.905Z,35.00
2019-03-29T11:18:34.161Z,35.00
2019-03-29T11:21:09.490Z,35.00
2019-03-29T11:23:44.669Z,34.90
2019-03-29T11:26:19.495Z,34.80
2019-03-29T11:28:54.654Z,34.80
2019-03-29T11:31:29.720Z,34.70
2019-03-29T11:34:04.874Z,34.60
2019-03-29T11:36:40.066Z,34.50
2019-03-29T11:39:15.714Z,34.50
2019-03-29T11:41:50.876Z,34.40
2019-03-29T11:44:25.799Z,34.40
2019-03-29T11:47:00.750Z,34.30
2019-03-29T11:49:35.893Z,34.20
2019-03-29T11:52:11.021Z,34.20
2019-03-29T11:54:46.063Z,34.10
2019-03-29T11:57:21.282Z,34.10
2019-03-29T11:59:56.412Z,34.10
2019-03-29T12:02:31.877Z,34.00
2019-03-29T12:05:06.502Z,34.00
2019-03-29T12:07:41.359Z,33.90
2019-03-29T12:10:16.780Z,33.90
2019-03-29T12:12:51.862Z,33.90
2019-03-29T12:15:27.193Z,33.90
2019-03-29T12:18:02.427Z,33.80
2019-03-29T12:20:37.202Z,33.80
2019-03-29T12:23:12.449Z,33.70
2019-03-29T12:25:47.704Z,33.70
2019-03-29T12:28:22.958Z,33.70
2019-03-29T12:30:58.132Z,33.70
2019-03-29T12:33:33.382Z,33.60
2019-03-29T12:36:08.585Z,33.60
2019-03-29T12:38:43.498Z,33.50
2019-03-29T12:41:19.028Z,33.50
2019-03-29T12:43:55.835Z,33.50
2019-03-29T12:46:32.303Z,33.40
2019-03-29T12:49:07.254Z,33.40
2019-03-29T12:51:42.498Z,33.30
2019-03-29T12:54:17.703Z,33.30
2019-03-29T12:56:52.966Z,33.30
2019-03-29T12:59:28.269Z,33.30
2019-03-29T13:02:03.364Z,33.30
2019-03-29T13:04:38.304Z,33.30
2019-03-29T13:07:13.608Z,33.20
2019-03-29T13:09:48.187Z,33.20
2019-03-29T13:12:23.138Z,33.20
2019-03-29T13:14:58.437Z,33.10
2019-03-29T13:17:32.953Z,33.10
2019-03-29T13:20:08.173Z,33.10
2019-03-29T13:22:43.587Z,33.10
2019-03-29T13:25:19.218Z,33.10
2019-03-29T13:27:58.995Z,33.00
2019-03-29T13:30:31.047Z,33.00
2019-03-29T13:33:06.406Z,33.00
2019-03-29T13:35:44.427Z,33.00
2019-03-29T13:38:20.450Z,33.00
2019-03-29T13:40:54.629Z,33.00
2019-03-29T13:43:29.644Z,33.00
2019-03-29T13:46:04.688Z,32.90
2019-03-29T13:48:39.662Z,32.90
2019-03-29T13:51:15.307Z,32.90
2019-03-29T13:53:50.308Z,32.90
2019-03-29T13:56:25.436Z,32.90
2019-03-29T13:59:00.299Z,32.90
2019-03-29T14:01:35.536Z,32.80
2019-03-29T14:04:10.772Z,32.80
2019-03-29T14:06:45.894Z,32.80
2019-03-29T14:09:20.829Z,32.80
2019-03-29T14:12:14.606Z,32.80
2019-03-29T14:14:49.839Z,32.80
2019-03-29T14:17:24.928Z,32.70
2019-03-29T14:20:00.419Z,32.70
2019-03-29T14:22:35.678Z,32.70
2019-03-29T14:25:10.776Z,32.70
2019-03-29T14:27:46.038Z,32.60
2019-03-29T14:30:20.860Z,32.60
2019-03-29T14:32:56.175Z,32.60
2019-03-29T14:35:31.453Z,32.60
2019-03-29T14:38:05.972Z,32.60
2019-03-29T14:40:41.202Z,32.60
2019-03-29T14:43:16.804Z,32.50
2019-03-29T14:45:51.220Z,32.50
2019-03-29T14:48:26.075Z,32.50
2019-03-29T14:51:01.176Z,32.40
2019-03-29T14:53:35.858Z,32.40
2019-03-29T14:56:10.868Z,32.40
2019-03-29T14:58:46.126Z,32.40
2019-03-29T15:01:21.618Z,32.40
2019-03-29T15:03:56.816Z,32.30
2019-03-29T15:06:32.186Z,32.30
2019-03-29T15:09:07.715Z,32.30
2019-03-29T15:11:42.846Z,32.30
2019-03-29T15:14:17.703Z,32.20
2019-03-29T15:16:52.229Z,32.20
2019-03-29T15:19:27.278Z,32.20
2019-03-29T15:22:02.461Z,32.10
2019-03-29T15:24:37.487Z,32.20
2019-03-29T15:27:12.811Z,32.10
2019-03-29T15:29:47.897Z,32.10
2019-03-29T15:32:23.026Z,32.10
2019-03-29T15:34:58.213Z,32.10
2019-03-29T15:37:33.814Z,32.10
2019-03-29T15:40:09.383Z,32.10
2019-03-29T15:42:44.457Z,32.10
2019-03-29T15:45:21.214Z,32.10
2019-03-29T15:47:56.826Z,32.10
2019-03-29T15:50:31.265Z,32.10
2019-03-29T15:53:06.109Z,32.10
2019-03-29T15:55:41.369Z,32.00
2019-03-29T15:58:16.605Z,32.00
2019-03-29T16:00:51.936Z,32.00
2019-03-29T16:03:27.152Z,32.00
2019-03-29T16:06:02.356Z,32.00
2019-03-29T16:08:37.491Z,32.00
2019-03-29T16:11:16.999Z,32.00
2019-03-29T16:13:49.524Z,32.00
2019-03-29T16:16:24.708Z,31.90
2019-03-29T16:19:00.009Z,31.90
2019-03-29T16:21:34.347Z,31.90
2019-03-29T16:24:09.548Z,31.90
2019-03-29T16:26:44.782Z,31.90
2019-03-29T16:29:19.936Z,31.80
2019-03-29T16:31:54.989Z,31.80
2019-03-29T16:34:32.987Z,31.80
2019-03-29T16:37:08.513Z,31.80
2019-03-29T16:39:43.619Z,31.80
2019-03-29T16:42:18.741Z,31.80
2019-03-29T16:44:54.115Z,31.80
2019-03-29T16:47:29.351Z,31.70
2019-03-29T16:50:03.661Z,31.80
2019-03-29T16:52:39.774Z,31.70
2019-03-29T16:55:15.660Z,31.70
2019-03-29T16:57:51.496Z,31.70
2019-03-29T17:00:27.147Z,31.70
2019-03-29T17:03:01.725Z,31.70
2019-03-29T17:05:36.445Z,31.70
2019-03-29T17:08:11.626Z,31.70
2019-03-29T17:10:46.915Z,31.60
2019-03-29T17:13:22.339Z,31.60
2019-03-29T17:16:01.945Z,31.60
2019-03-29T17:18:33.829Z,31.60
2019-03-29T17:21:09.032Z,31.60
2019-03-29T17:23:46.416Z,31.60
2019-03-29T17:26:21.536Z,31.60
2019-03-29T17:28:56.366Z,31.60
2019-03-29T17:31:31.422Z,31.60
2019-03-29T17:34:06.397Z,31.60
2019-03-29T17:36:40.930Z,31.60
2019-03-29T17:39:16.257Z,31.60
2019-03-29T17:41:50.616Z,31.60
2019-03-29T17:44:25.710Z,31.60
2019-03-29T17:47:01.284Z,31.60
2019-03-29T17:49:36.198Z,31.60
2019-03-29T17:52:13.698Z,31.60
2019-03-29T17:54:49.060Z,31.50
2019-03-29T17:57:24.166Z,31.50
2019-03-29T17:59:59.236Z,31.50
2019-03-29T18:02:35.240Z,31.50
2019-03-29T18:05:09.723Z,31.50
2019-03-29T18:07:44.672Z,31.50
2019-03-29T18:10:19.773Z,31.50
2019-03-29T18:12:56.000Z,31.50
2019-03-29T18:15:31.349Z,31.50
2019-03-29T18:18:06.097Z,31.40
2019-03-29T18:20:41.494Z,31.40
2019-03-29T18:23:15.935Z,31.40
2019-03-29T18:25:51.073Z,31.40
2019-03-29T18:28:26.302Z,31.40
2019-03-29T18:31:01.348Z,31.30
2019-03-29T18:33:35.589Z,31.30
2019-03-29T18:36:11.352Z,31.30
2019-03-29T18:38:47.162Z,31.30
2019-03-29T18:41:22.654Z,31.20
2019-03-29T18:43:57.573Z,31.30
2019-03-29T18:46:43.893Z,31.30
2019-03-29T18:49:11.913Z,31.30
2019-03-29T18:51:47.102Z,31.20
2019-03-29T18:54:22.480Z,31.20
2019-03-29T18:56:56.839Z,31.20
2019-03-29T18:59:31.765Z,31.20
2019-03-29T19:02:06.415Z,31.20
2019-03-29T19:04:41.313Z,31.20
2019-03-29T19:07:16.431Z,31.20
2019-03-29T19:09:51.485Z,31.20
2019-03-29T19:12:26.285Z,31.20
2019-03-29T19:15:01.204Z,31.20
2019-03-29T19:17:36.256Z,31.20
2019-03-29T19:20:11.473Z,31.20
2019-03-29T19:22:46.392Z,31.20
2019-03-29T19:25:21.495Z,31.20
2019-03-29T19:27:57.806Z,31.10
2019-03-29T19:30:32.611Z,31.10
2019-03-29T19:33:08.275Z,31.10
2019-03-29T19:35:43.546Z,31.00
2019-03-29T19:38:18.615Z,31.00
2019-03-29T19:40:53.485Z,31.00
2019-03-29T19:43:28.496Z,30.90
2019-03-29T19:46:03.203Z,30.90
2019-03-29T19:48:39.111Z,30.90
2019-03-29T19:51:13.992Z,30.90
2019-03-29T19:53:48.844Z,30.90
2019-03-29T19:56:24.141Z,30.90
2019-03-29T19:58:59.023Z,30.90
2019-03-29T20:01:33.990Z,30.90
2019-03-29T20:04:09.766Z,30.90
2019-03-29T20:06:44.990Z,30.90
2019-03-29T20:09:19.889Z,30.90
2019-03-29T20:11:55.111Z,30.90
2019-03-29T20:14:30.132Z,30.90
2019-03-29T20:17:05.536Z,30.90
2019-03-29T20:19:40.377Z,30.90
2019-03-29T20:22:16.262Z,30.90
2019-03-29T20:24:51.152Z,30.90
2019-03-29T20:27:26.068Z,30.80
2019-03-29T20:30:01.280Z,30.80
2019-03-29T20:32:36.541Z,30.80
2019-03-29T20:35:12.111Z,30.80
2019-03-29T20:37:47.514Z,30.70
2019-03-29T20:40:22.594Z,30.70
2019-03-29T20:42:57.588Z,30.70
2019-03-29T20:45:33.488Z,30.70
2019-03-29T20:48:08.883Z,30.70
2019-03-29T20:50:44.153Z,30.70
2019-03-29T20:53:19.604Z,30.70
2019-03-29T20:55:58.088Z,30.70
2019-03-29T20:58:31.348Z,30.70
2019-03-29T21:01:06.642Z,30.70
2019-03-29T21:03:41.816Z,30.70
2019-03-29T21:06:16.666Z,30.70
2019-03-29T21:08:51.655Z,30.70
2019-03-29T21:11:26.970Z,30.70
2019-03-29T21:14:02.107Z,30.70
2019-03-29T21:16:37.421Z,30.70
2019-03-29T21:19:12.521Z,30.70
2019-03-29T21:21:47.335Z,30.70
2019-03-29T21:24:22.453Z,30.70
2019-03-29T21:26:57.975Z,30.70
2019-03-29T21:29:33.054Z,30.70
2019-03-29T21:32:08.422Z,30.70
2019-03-29T21:34:43.470Z,30.70
2019-03-29T21:37:18.227Z,30.60
2019-03-29T21:40:00.268Z,30.60
2019-03-29T21:42:35.264Z,30.60
2019-03-29T21:45:10.461Z,30.60
2019-03-29T21:47:45.633Z,30.50
2019-03-29T21:50:21.082Z,30.50
2019-03-29T21:52:56.291Z,30.50
2019-03-29T21:55:32.505Z,30.50
2019-03-29T21:58:07.529Z,30.50
2019-03-29T22:00:42.973Z,30.50
2019-03-29T22:03:17.807Z,30.50
2019-03-29T22:05:52.855Z,30.50
2019-03-29T22:08:28.156Z,30.50
2019-03-29T22:11:03.164Z,30.50
2019-03-29T22:13:38.488Z,30.50
2019-03-29T22:16:13.799Z,30.50
2019-03-29T22:18:49.063Z,30.50
2019-03-29T22:21:23.917Z,30.50
2019-03-29T22:23:58.580Z,30.50
2019-03-29T22:26:33.815Z,30.50
2019-03-29T22:29:09.052Z,30.50
2019-03-29T22:31:44.589Z,30.50
2019-03-29T22:34:19.458Z,30.50
2019-03-29T22:36:54.630Z,30.50
2019-03-29T22:39:30.311Z,30.50
2019-03-29T22:42:05.224Z,30.40
2019-03-29T22:44:40.423Z,30.40
2019-03-29T22:47:15.369Z,30.40
2019-03-29T22:49:51.373Z,30.40
2019-03-29T22:52:26.555Z,30.30
2019-03-29T22:55:01.620Z,30.30
2019-03-29T22:57:36.577Z,30.30
2019-03-29T23:00:13.432Z,30.20
2019-03-29T23:02:48.676Z,30.20
2019-03-29T23:05:23.531Z,30.20
2019-03-29T23:07:58.334Z,30.20
2019-03-29T23:10:33.462Z,30.20
2019-03-29T23:13:09.143Z,30.20
2019-03-29T23:15:44.165Z,30.20
2019-03-29T23:18:19.464Z,30.20
2019-03-29T23:20:54.680Z,30.20
2019-03-29T23:23:29.707Z,30.20
2019-03-29T23:26:04.844Z,30.20
2019-03-29T23:28:39.577Z,30.20
2019-03-29T23:31:14.747Z,30.20
2019-03-29T23:33:50.227Z,30.20
2019-03-29T23:36:25.305Z,30.20
2019-03-29T23:38:59.739Z,30.30
2019-03-29T23:41:35.398Z,30.20
2019-03-29T23:44:10.548Z,30.30
2019-03-29T23:46:45.451Z,30.30
2019-03-29T23:49:21.470Z,30.40
2019-03-29T23:51:56.561Z,30.40
2019-03-29T23:54:31.224Z,30.50
2019-03-29T23:57:06.463Z,30.60
2019-03-29T23:59:42.395Z,30.70
